createdAt,value
2018-07-15T00:00:07.822Z,79.63
2018-07-15T00:02:36.865Z,80.02
2018-07-15T00:05:07.504Z,80.07
2018-07-15T00:07:36.769Z,80.26
2018-07-15T00:10:07.729Z,79.69
2018-07-15T00:12:36.659Z,80.22
2018-07-15T00:15:07.638Z,80.05
2018-07-15T00:17:36.707Z,79.43
2018-07-15T00:20:07.132Z,79.62
2018-07-15T00:22:36.348Z,79.65
2018-07-15T00:25:06.926Z,79.72
2018-07-15T00:27:35.894Z,80.07
2018-07-15T00:30:09.723Z,81.41
2018-07-15T00:32:38.788Z,81.35
2018-07-15T00:35:08.214Z,82.46
2018-07-15T00:37:37.165Z,83.57
2018-07-15T00:40:07.734Z,83.29
2018-07-15T00:42:36.675Z,83.20
2018-07-15T00:45:07.741Z,83.04
2018-07-15T00:47:36.646Z,83.91
2018-07-15T00:50:07.233Z,83.57
2018-07-15T00:52:36.209Z,82.99
2018-07-15T00:55:07.264Z,83.42
2018-07-15T00:57:36.662Z,83.76
2018-07-15T01:00:07.902Z,83.83
2018-07-15T01:02:41.844Z,85.46
2018-07-15T01:05:10.974Z,85.36
2018-07-15T01:07:40.214Z,86.06
2018-07-15T01:10:09.523Z,85.78
2018-07-15T01:12:38.446Z,85.93
2018-07-15T01:15:07.435Z,87.60
2018-07-15T01:17:36.358Z,87.59
2018-07-15T01:20:07.139Z,87.30
2018-07-15T01:22:36.562Z,86.36
2018-07-15T01:25:07.400Z,86.20
2018-07-15T01:27:36.464Z,86.28
2018-07-15T01:30:07.424Z,86.24
2018-07-15T01:32:36.494Z,86.09
2018-07-15T01:35:07.364Z,86.29
2018-07-15T01:37:36.445Z,87.16
2018-07-15T01:40:07.490Z,87.09
2018-07-15T01:42:36.668Z,86.97
2018-07-15T01:45:07.316Z,85.84
2018-07-15T01:47:36.506Z,86.99
2018-07-15T01:50:07.385Z,87.61
2018-07-15T01:52:36.471Z,88.08
2018-07-15T01:55:07.406Z,88.21
2018-07-15T01:57:36.514Z,87.43
2018-07-15T02:00:09.309Z,87.31
2018-07-15T02:02:38.657Z,87.78
2018-07-15T02:05:08.511Z,87.52
2018-07-15T02:07:38.416Z,88.02
2018-07-15T02:10:07.611Z,88.17
2018-07-15T02:12:37.135Z,87.75
2018-07-15T02:15:07.470Z,87.59
2018-07-15T02:17:36.690Z,88.13
2018-07-15T02:20:08.884Z,87.77
2018-07-15T02:22:37.955Z,88.73
2018-07-15T02:25:07.170Z,88.62
2018-07-15T02:27:37.477Z,89.06
2018-07-15T02:30:07.257Z,88.43
2018-07-15T02:32:36.279Z,88.53
2018-07-15T02:35:07.159Z,89.39
2018-07-15T02:37:36.491Z,90.27
2018-07-15T02:40:07.468Z,91.50
2018-07-15T02:42:36.535Z,91.71
2018-07-15T02:45:07.309Z,91.44
2018-07-15T02:47:36.247Z,91.13
2018-07-15T02:50:07.156Z,90.13
2018-07-15T02:52:36.404Z,89.16
2018-07-15T02:55:07.279Z,89.28
2018-07-15T02:57:36.346Z,89.41
2018-07-15T03:00:07.851Z,90.67
2018-07-15T03:02:36.886Z,90.71
2018-07-15T03:05:07.065Z,90.19
2018-07-15T03:07:36.320Z,89.79
2018-07-15T03:10:09.052Z,90.07
2018-07-15T03:12:38.317Z,89.53
2018-07-15T03:15:07.514Z,89.40
2018-07-15T03:17:36.590Z,90.19
2018-07-15T03:20:09.444Z,89.95
2018-07-15T03:22:38.668Z,89.45
2018-07-15T03:25:07.790Z,90.33
2018-07-15T03:27:37.303Z,90.98
2018-07-15T03:30:08.225Z,92.03
2018-07-15T03:32:37.475Z,91.70
2018-07-15T03:35:08.198Z,90.56
2018-07-15T03:37:37.440Z,91.14
2018-07-15T03:40:07.355Z,91.26
2018-07-15T03:42:36.355Z,91.11
2018-07-15T03:45:07.095Z,91.36
2018-07-15T03:47:36.206Z,91.51
2018-07-15T03:50:06.775Z,91.77
2018-07-15T03:52:36.033Z,91.80
2018-07-15T03:55:06.942Z,91.05
2018-07-15T03:57:36.055Z,90.29
2018-07-15T04:00:06.983Z,90.68
2018-07-15T04:02:36.187Z,90.29
2018-07-15T04:05:07.317Z,90.51
2018-07-15T04:07:36.311Z,90.41
2018-07-15T04:10:07.071Z,91.79
2018-07-15T04:12:38.011Z,92.35
2018-07-15T04:15:07.316Z,93.66
2018-07-15T04:17:36.384Z,93.11
2018-07-15T04:20:08.622Z,91.35
2018-07-15T04:22:37.905Z,91.11
2018-07-15T04:25:06.935Z,92.86
2018-07-15T04:27:36.059Z,93.56
2018-07-15T04:30:08.343Z,94.09
2018-07-15T04:32:37.406Z,92.23
2018-07-15T04:35:07.075Z,91.04
2018-07-15T04:37:36.030Z,89.70
2018-07-15T04:40:08.367Z,89.29
2018-07-15T04:42:37.471Z,88.69
2018-07-15T04:45:07.366Z,88.14
2018-07-15T04:47:36.534Z,87.75
2018-07-15T04:50:07.300Z,86.91
2018-07-15T04:52:36.424Z,87.29
2018-07-15T04:55:07.793Z,85.82
2018-07-15T04:57:37.060Z,84.39
2018-07-15T05:00:07.657Z,83.40
2018-07-15T05:02:37.086Z,83.21
2018-07-15T05:05:07.108Z,84.11
2018-07-15T05:07:36.070Z,82.62
2018-07-15T05:10:07.375Z,82.03
2018-07-15T05:12:36.487Z,81.40
2018-07-15T05:15:07.529Z,81.12
2018-07-15T05:17:37.015Z,81.85
2018-07-15T05:20:07.914Z,84.72
2018-07-15T05:22:37.031Z,86.79
2018-07-15T05:25:07.961Z,86.25
2018-07-15T05:27:37.732Z,85.86
2018-07-15T05:30:08.021Z,86.14
2018-07-15T05:32:37.333Z,85.52
2018-07-15T05:35:08.908Z,85.81
2018-07-15T05:37:38.775Z,85.70
2018-07-15T05:40:08.330Z,85.94
2018-07-15T05:42:37.774Z,85.55
2018-07-15T05:45:07.181Z,84.53
2018-07-15T05:47:36.335Z,84.74
2018-07-15T05:50:07.510Z,84.48
2018-07-15T05:52:36.660Z,83.62
2018-07-15T05:55:08.835Z,83.85
2018-07-15T05:57:38.423Z,83.40
2018-07-15T06:00:07.619Z,83.83
2018-07-15T06:02:37.355Z,83.27
2018-07-15T06:05:07.797Z,83.50
2018-07-15T06:07:37.161Z,83.65
2018-07-15T06:10:07.474Z,83.08
2018-07-15T06:12:37.207Z,83.06
2018-07-15T06:15:07.517Z,82.87
2018-07-15T06:17:37.996Z,83.14
2018-07-15T06:20:08.198Z,83.32
2018-07-15T06:22:41.914Z,82.43
2018-07-15T06:25:11.330Z,81.84
2018-07-15T06:27:41.331Z,80.37
2018-07-15T06:30:10.320Z,80.43
2018-07-15T06:32:39.915Z,80.46
2018-07-15T06:35:09.948Z,79.94
2018-07-15T06:37:39.225Z,78.94
2018-07-15T06:40:08.794Z,78.82
2018-07-15T06:42:38.643Z,78.89
2018-07-15T06:45:07.888Z,79.80
2018-07-15T06:47:37.194Z,79.29
2018-07-15T06:50:07.718Z,79.12
2018-07-15T06:52:37.707Z,78.85
2018-07-15T06:55:07.642Z,79.05
2018-07-15T06:57:37.012Z,79.54
2018-07-15T07:00:08.024Z,79.32
2018-07-15T07:02:37.113Z,78.32
2018-07-15T07:05:07.544Z,78.14
2018-07-15T07:07:36.830Z,74.84
2018-07-15T07:10:08.402Z,70.69
2018-07-15T07:12:37.866Z,68.64
2018-07-15T07:15:07.858Z,65.72
2018-07-15T07:17:37.011Z,65.61
2018-07-15T07:20:08.124Z,56.39
2018-07-15T07:22:37.699Z,54.24
2018-07-15T07:25:08.279Z,52.70
2018-07-15T07:27:37.459Z,48.84
2018-07-15T07:30:08.283Z,54.68
2018-07-15T07:32:37.967Z,53.28
2018-07-15T07:35:07.790Z,51.75
2018-07-15T07:37:36.986Z,47.23
2018-07-15T07:40:08.158Z,45.97
2018-07-15T07:42:38.280Z,46.71
2018-07-15T07:45:07.418Z,57.49
2018-07-15T07:47:36.671Z,55.54
2018-07-15T07:50:07.196Z,58.35
2018-07-15T07:52:36.154Z,61.73
2018-07-15T07:55:07.584Z,62.55
2018-07-15T07:57:36.735Z,59.66
2018-07-15T08:00:08.962Z,57.99
2018-07-15T08:02:38.104Z,52.09
2018-07-15T08:05:07.351Z,51.42
2018-07-15T08:07:36.630Z,55.18
2018-07-15T08:10:07.380Z,56.78
2018-07-15T08:12:37.341Z,58.10
2018-07-15T08:15:08.117Z,55.62
2018-07-15T08:17:37.408Z,56.68
2018-07-15T08:20:07.457Z,54.54
2018-07-15T08:22:37.000Z,56.37
2018-07-15T08:25:09.576Z,54.63
2018-07-15T08:27:38.797Z,55.21
2018-07-15T08:30:18.901Z,55.66
2018-07-15T08:32:48.320Z,52.55
2018-07-15T08:35:17.278Z,51.47
2018-07-15T08:37:47.633Z,52.70
2018-07-15T08:40:16.743Z,52.10
2018-07-15T08:42:46.471Z,48.56
2018-07-15T08:45:16.215Z,45.57
2018-07-15T08:47:45.469Z,47.77
2018-07-15T08:50:14.729Z,48.76
2018-07-15T08:52:43.871Z,46.76
2018-07-15T08:55:14.122Z,38.92
2018-07-15T08:57:44.428Z,39.25
2018-07-15T09:00:14.298Z,35.63
2018-07-15T09:02:43.738Z,34.37
2018-07-15T09:05:12.786Z,34.54
2018-07-15T09:07:42.036Z,34.62
2018-07-15T09:10:11.136Z,38.13
2018-07-15T09:12:40.170Z,39.18
2018-07-15T09:15:09.319Z,41.72
2018-07-15T09:17:38.603Z,45.26
2018-07-15T09:20:07.818Z,41.44
2018-07-15T09:22:36.895Z,40.74
2018-07-15T09:25:09.087Z,39.41
2018-07-15T09:27:38.379Z,36.29
2018-07-15T09:30:07.486Z,34.35
2018-07-15T09:32:36.732Z,30.40
2018-07-15T09:35:09.028Z,28.96
2018-07-15T09:37:38.271Z,30.17
2018-07-15T09:40:07.511Z,32.85
2018-07-15T09:42:36.794Z,33.09
2018-07-15T09:45:07.587Z,35.61
2018-07-15T09:47:36.649Z,38.17
2018-07-15T09:50:07.503Z,39.15
2018-07-15T09:52:36.804Z,36.60
2018-07-15T09:55:08.558Z,35.03
2018-07-15T09:57:37.760Z,36.24
2018-07-15T10:00:10.027Z,33.63
2018-07-15T10:02:39.112Z,32.12
2018-07-15T10:05:08.089Z,30.90
2018-07-15T10:07:37.501Z,31.85
2018-07-15T10:10:08.154Z,28.48
2018-07-15T10:12:37.194Z,29.81
2018-07-15T10:15:07.760Z,26.38
2018-07-15T10:17:37.062Z,25.35
2018-07-15T10:20:08.316Z,26.06
2018-07-15T10:22:37.384Z,29.24
2018-07-15T10:25:07.749Z,29.02
2018-07-15T10:27:37.742Z,25.09
2018-07-15T10:30:07.820Z,27.54
2018-07-15T10:32:36.859Z,27.18
2018-07-15T10:35:08.212Z,27.83
2018-07-15T10:37:37.177Z,25.28
2018-07-15T10:40:08.171Z,24.91
2018-07-15T10:42:37.638Z,25.01
2018-07-15T10:45:08.384Z,27.16
2018-07-15T10:47:37.657Z,25.11
2018-07-15T10:50:07.504Z,24.52
2018-07-15T10:52:36.792Z,28.66
2018-07-15T10:55:08.263Z,30.83
2018-07-15T10:57:37.364Z,29.52
2018-07-15T11:00:08.800Z,27.41
2018-07-15T11:02:37.805Z,25.87
2018-07-15T11:05:08.655Z,25.22
2018-07-15T11:07:37.604Z,25.17
2018-07-15T11:10:07.863Z,25.54
2018-07-15T11:12:36.842Z,26.32
2018-07-15T11:15:07.931Z,28.93
2018-07-15T11:17:37.339Z,29.06
2018-07-15T11:20:07.616Z,30.01
2018-07-15T11:22:36.900Z,30.61
2018-07-15T11:25:09.169Z,30.55
2018-07-15T11:27:38.274Z,30.99
2018-07-15T11:30:07.942Z,29.91
2018-07-15T11:32:36.963Z,31.21
2018-07-15T11:35:09.844Z,31.05
2018-07-15T11:37:38.775Z,32.24
2018-07-15T11:40:08.843Z,33.86
2018-07-15T11:42:37.903Z,33.35
2018-07-15T11:45:07.972Z,33.85
2018-07-15T11:47:37.912Z,32.73
2018-07-15T11:50:07.779Z,33.36
2018-07-15T11:52:37.055Z,32.92
2018-07-15T11:55:08.191Z,32.20
2018-07-15T11:57:37.234Z,32.32
2018-07-15T12:00:09.452Z,32.18
2018-07-15T12:02:38.635Z,33.88
2018-07-15T12:05:08.640Z,32.98
2018-07-15T12:07:37.667Z,33.56
2018-07-15T12:10:08.374Z,31.66
2018-07-15T12:12:37.300Z,31.92
2018-07-15T12:15:08.584Z,32.77
2018-07-15T12:17:37.504Z,32.29
2018-07-15T12:20:08.172Z,32.88
2018-07-15T12:22:37.314Z,32.71
2018-07-15T12:25:08.220Z,32.07
2018-07-15T12:27:37.228Z,32.37
2018-07-15T12:30:08.898Z,33.07
2018-07-15T12:32:38.139Z,31.21
2018-07-15T12:35:08.083Z,32.84
2018-07-15T12:37:37.179Z,33.81
2018-07-15T12:40:08.019Z,32.11
2018-07-15T12:42:36.983Z,31.77
2018-07-15T12:45:08.025Z,32.62
2018-07-15T12:47:36.986Z,33.72
2018-07-15T12:50:09.042Z,33.42
2018-07-15T12:52:38.215Z,34.08
2018-07-15T12:55:08.347Z,34.23
2018-07-15T12:57:37.637Z,32.57
2018-07-15T13:00:08.073Z,33.44
2018-07-15T13:02:37.059Z,31.78
2018-07-15T13:05:07.874Z,31.83
2018-07-15T13:07:37.225Z,31.85
2018-07-15T13:10:07.754Z,31.49
2018-07-15T13:12:37.184Z,30.56
2018-07-15T13:15:08.016Z,30.20
2018-07-15T13:17:37.957Z,30.17
2018-07-15T13:20:08.678Z,29.96
2018-07-15T13:22:37.986Z,32.37
2018-07-15T13:25:08.156Z,31.68
2018-07-15T13:27:37.241Z,32.44
2018-07-15T13:30:08.799Z,30.39
2018-07-15T13:32:37.797Z,29.10
2018-07-15T13:35:07.822Z,29.07
2018-07-15T13:37:37.062Z,30.05
2018-07-15T13:40:08.096Z,29.09
2018-07-15T13:42:37.656Z,31.12
2018-07-15T13:45:08.419Z,29.83
2018-07-15T13:47:37.583Z,28.68
2018-07-15T13:50:07.880Z,28.21
2018-07-15T13:52:37.383Z,30.71
2018-07-15T13:55:08.092Z,28.84
2018-07-15T13:57:37.499Z,29.75
2018-07-15T14:00:08.764Z,29.49
2018-07-15T14:02:38.087Z,28.57
2018-07-15T14:05:08.070Z,28.52
2018-07-15T14:07:37.889Z,28.85
2018-07-15T14:10:09.182Z,28.17
2018-07-15T14:12:38.439Z,29.88
2018-07-15T14:15:07.807Z,27.49
2018-07-15T14:17:37.650Z,27.64
2018-07-15T14:20:09.026Z,28.58
2018-07-15T14:22:38.275Z,27.68
2018-07-15T14:25:08.261Z,29.20
2018-07-15T14:27:37.524Z,29.68
2018-07-15T14:30:08.525Z,29.07
2018-07-15T14:32:38.304Z,29.27
2018-07-15T14:35:08.473Z,29.37
2018-07-15T14:37:37.500Z,29.17
2018-07-15T14:40:08.190Z,30.77
2018-07-15T14:42:37.384Z,28.87
2018-07-15T14:45:09.086Z,28.93
2018-07-15T14:47:38.801Z,28.79
2018-07-15T14:50:08.198Z,28.12
2018-07-15T14:52:37.268Z,27.69
2018-07-15T14:55:10.232Z,28.10
2018-07-15T14:57:39.197Z,27.52
2018-07-15T15:00:08.507Z,27.82
2018-07-15T15:02:37.755Z,28.29
2018-07-15T15:05:09.526Z,26.18
2018-07-15T15:07:38.513Z,27.00
2018-07-15T15:10:08.327Z,27.31
2018-07-15T15:12:37.623Z,29.30
2018-07-15T15:15:09.139Z,27.50
2018-07-15T15:17:38.069Z,28.09
2018-07-15T15:20:09.631Z,28.39
2018-07-15T15:22:38.651Z,28.53
2018-07-15T15:25:07.816Z,28.42
2018-07-15T15:27:37.656Z,28.75
2018-07-15T15:30:08.495Z,27.72
2018-07-15T15:32:37.431Z,27.51
2018-07-15T15:35:09.323Z,28.08
2018-07-15T15:37:38.563Z,28.29
2018-07-15T15:40:08.281Z,27.88
2018-07-15T15:42:37.700Z,29.02
2018-07-15T15:45:07.816Z,28.77
2018-07-15T15:47:37.145Z,28.36
2018-07-15T15:50:09.738Z,27.38
2018-07-15T15:52:38.710Z,28.93
2018-07-15T15:55:08.153Z,27.56
2018-07-15T15:57:37.093Z,27.62
2018-07-15T16:00:10.614Z,28.12
2018-07-15T16:02:40.132Z,27.95
2018-07-15T16:05:09.960Z,27.75
2018-07-15T16:07:38.962Z,29.43
2018-07-15T16:10:09.051Z,29.08
2018-07-15T16:12:38.558Z,28.70
2018-07-15T16:15:08.354Z,27.97
2018-07-15T16:17:37.316Z,29.03
2018-07-15T16:20:08.409Z,28.86
2018-07-15T16:22:37.634Z,29.15
2018-07-15T16:25:07.753Z,29.51
2018-07-15T16:27:36.747Z,28.69
2018-07-15T16:30:07.756Z,29.64
2018-07-15T16:32:36.736Z,28.76
2018-07-15T16:35:07.677Z,28.67
2018-07-15T16:37:36.682Z,29.11
2018-07-15T16:40:07.727Z,29.45
2018-07-15T16:42:37.144Z,28.38
2018-07-15T16:45:08.220Z,28.96
2018-07-15T16:47:37.173Z,29.70
2018-07-15T16:50:07.813Z,29.60
2018-07-15T16:52:36.783Z,28.92
2018-07-15T16:55:08.123Z,29.15
2018-07-15T16:57:37.100Z,29.34
2018-07-15T17:00:07.018Z,29.96
2018-07-15T17:02:36.931Z,29.57
2018-07-15T17:05:07.322Z,29.98
2018-07-15T17:07:36.593Z,28.75
2018-07-15T17:10:07.258Z,29.59
2018-07-15T17:12:36.255Z,28.89
2018-07-15T17:15:07.162Z,29.37
2018-07-15T17:17:36.187Z,29.45
2018-07-15T17:20:07.550Z,30.13
2018-07-15T17:22:36.791Z,28.92
2018-07-15T17:25:07.039Z,29.66
2018-07-15T17:27:36.122Z,29.69
2018-07-15T17:30:08.971Z,29.55
2018-07-15T17:32:38.081Z,30.06
2018-07-15T17:35:07.552Z,29.84
2018-07-15T17:37:37.713Z,29.72
2018-07-15T17:40:07.762Z,30.44
2018-07-15T17:42:37.018Z,29.32
2018-07-15T17:45:07.202Z,30.39
2018-07-15T17:47:36.342Z,29.44
2018-07-15T17:50:07.781Z,29.48
2018-07-15T17:52:37.394Z,29.76
2018-07-15T17:55:07.122Z,30.32
2018-07-15T17:57:36.098Z,30.64
2018-07-15T18:00:09.872Z,30.21
2018-07-15T18:02:38.886Z,30.23
2018-07-15T18:05:08.152Z,30.55
2018-07-15T18:07:37.294Z,30.80
2018-07-15T18:10:07.562Z,31.54
2018-07-15T18:12:37.261Z,32.10
2018-07-15T18:15:07.791Z,31.78
2018-07-15T18:17:37.012Z,31.74
2018-07-15T18:20:07.271Z,32.44
2018-07-15T18:22:36.383Z,31.74
2018-07-15T18:25:07.639Z,33.20
2018-07-15T18:27:36.589Z,32.98
2018-07-15T18:30:07.426Z,33.92
2018-07-15T18:32:36.704Z,33.74
2018-07-15T18:35:09.841Z,32.96
2018-07-15T18:37:39.029Z,32.82
2018-07-15T18:40:08.158Z,33.09
2018-07-15T18:42:37.535Z,32.63
2018-07-15T18:45:07.255Z,33.07
2018-07-15T18:47:38.237Z,32.53
2018-07-15T18:50:08.147Z,33.18
2018-07-15T18:52:37.906Z,32.88
2018-07-15T18:55:07.058Z,33.55
2018-07-15T18:57:37.110Z,33.88
2018-07-15T19:00:09.059Z,34.43
2018-07-15T19:02:38.860Z,33.33
2018-07-15T19:05:08.470Z,34.29
2018-07-15T19:07:37.476Z,33.97
2018-07-15T19:10:07.859Z,34.02
2018-07-15T19:12:36.789Z,33.61
2018-07-15T19:15:07.935Z,35.21
2018-07-15T19:17:37.042Z,35.64
2018-07-15T19:20:07.755Z,34.71
2018-07-15T19:22:37.662Z,34.48
2018-07-15T19:25:07.764Z,35.21
2018-07-15T19:27:37.013Z,34.63
2018-07-15T19:30:07.683Z,34.63
2018-07-15T19:32:36.673Z,34.73
2018-07-15T19:35:07.300Z,34.99
2018-07-15T19:37:36.653Z,35.31
2018-07-15T19:40:07.710Z,35.73
2018-07-15T19:42:36.706Z,35.58
2018-07-15T19:45:08.288Z,36.43
2018-07-15T19:47:37.582Z,36.58
2018-07-15T19:50:07.175Z,36.66
2018-07-15T19:52:36.171Z,37.92
2018-07-15T19:55:08.858Z,38.26
2018-07-15T19:57:38.375Z,38.90
2018-07-15T20:00:07.830Z,38.93
2018-07-15T20:02:36.755Z,39.31
2018-07-15T20:05:07.470Z,39.47
2018-07-15T20:07:36.617Z,40.49
2018-07-15T20:10:07.232Z,40.48
2018-07-15T20:12:36.534Z,40.53
2018-07-15T20:15:08.654Z,42.11
2018-07-15T20:17:37.638Z,41.98
2018-07-15T20:20:10.689Z,42.13
2018-07-15T20:22:39.718Z,42.35
2018-07-15T20:25:09.925Z,42.85
2018-07-15T20:27:39.866Z,43.77
2018-07-15T20:30:09.299Z,44.82
2018-07-15T20:32:39.210Z,44.51
2018-07-15T20:35:08.493Z,44.91
2018-07-15T20:37:37.621Z,45.72
2018-07-15T20:40:08.310Z,46.15
2018-07-15T20:42:37.272Z,45.86
2018-07-15T20:45:07.538Z,46.00
2018-07-15T20:47:36.519Z,45.54
2018-07-15T20:50:09.379Z,46.29
2018-07-15T20:52:38.630Z,46.15
2018-07-15T20:55:08.104Z,46.29
2018-07-15T20:57:37.076Z,46.20
2018-07-15T21:00:07.386Z,46.39
2018-07-15T21:02:36.525Z,46.40
2018-07-15T21:05:07.282Z,47.13
2018-07-15T21:07:36.277Z,46.14
2018-07-15T21:10:09.537Z,47.06
2018-07-15T21:12:38.566Z,48.33
2018-07-15T21:15:07.568Z,47.83
2018-07-15T21:17:36.535Z,48.70
2018-07-15T21:20:07.658Z,48.81
2018-07-15T21:22:36.741Z,48.59
2018-07-15T21:25:07.286Z,48.96
2018-07-15T21:27:36.415Z,49.85
2018-07-15T21:30:09.183Z,49.98
2018-07-15T21:32:38.488Z,50.29
2018-07-15T21:35:07.592Z,50.55
2018-07-15T21:37:36.633Z,51.10
2018-07-15T21:40:07.660Z,51.14
2018-07-15T21:42:36.644Z,51.39
2018-07-15T21:45:07.531Z,52.02
2018-07-15T21:47:36.467Z,52.23
2018-07-15T21:50:07.586Z,52.95
2018-07-15T21:52:37.078Z,52.62
2018-07-15T21:55:07.760Z,53.97
2018-07-15T21:57:37.061Z,54.61
2018-07-15T22:00:08.450Z,53.85
2018-07-15T22:02:37.908Z,54.91
2018-07-15T22:05:08.410Z,54.66
2018-07-15T22:07:48.652Z,54.82
2018-07-15T22:11:29.496Z,55.19
2018-07-15T22:13:58.784Z,55.41
2018-07-15T22:16:28.603Z,56.13
2018-07-15T22:18:58.435Z,56.50
2018-07-15T22:21:27.614Z,57.56
2018-07-15T22:23:56.820Z,57.21
2018-07-15T22:26:25.791Z,56.60
2018-07-15T22:28:54.759Z,57.66
2018-07-15T22:31:23.660Z,56.81
2018-07-15T22:33:52.675Z,58.17
2018-07-15T22:36:26.802Z,58.20
2018-07-15T22:38:56.639Z,58.33
2018-07-15T22:41:25.591Z,58.75
2018-07-15T22:43:55.322Z,59.78
2018-07-15T22:46:24.408Z,59.57
2018-07-15T22:48:53.387Z,58.94
2018-07-15T22:51:22.356Z,60.39
2018-07-15T22:53:51.603Z,59.84
2018-07-15T22:56:20.542Z,59.83
2018-07-15T22:58:49.479Z,60.44
2018-07-15T23:01:18.667Z,61.26
2018-07-15T23:03:47.843Z,60.89
2018-07-15T23:06:20.560Z,61.22
2018-07-15T23:08:49.551Z,61.79
2018-07-15T23:11:19.080Z,61.42
2018-07-15T23:13:48.103Z,62.23
2018-07-15T23:16:17.276Z,60.91
2018-07-15T23:18:47.200Z,60.89
2018-07-15T23:21:16.337Z,61.42
2018-07-15T23:23:46.495Z,60.85
2018-07-15T23:26:15.467Z,60.64
2018-07-15T23:28:44.571Z,61.62
2018-07-15T23:31:13.657Z,61.74
2018-07-15T23:33:42.751Z,61.32
2018-07-15T23:36:11.932Z,61.49
2018-07-15T23:38:41.055Z,61.97
2018-07-15T23:41:10.286Z,61.91
2018-07-15T23:43:40.056Z,62.08
2018-07-15T23:46:09.762Z,62.29
2018-07-15T23:48:39.084Z,62.65
2018-07-15T23:51:08.572Z,63.55
2018-07-15T23:53:37.537Z,64.18
2018-07-15T23:56:07.236Z,63.69
2018-07-15T23:58:36.219Z,64.51
